Time;durP1;ratioP1;P1;durP2;ratioP2;P2;SDS_P1;SDS_P2;PMS_P1;PMS_P2;Temp;Humidity;BMP_temperature;BMP_pressure;BME280_temperature;BME280_humidity;BME280_pressure;Samples;Min_cycle;Max_cycle;Signal;HPM_P1;HPM_P2
2023/10/27 00:01:13;;;;;;;22.53;5.30;;;13.80;99.90;;;;;;7287630;19;20202;-80
2023/10/27 00:03:39;;;;;;;23.50;5.03;;;13.80;99.90;;;;;;7289501;19;20234;-81
2023/10/27 00:06:05;;;;;;;25.93;5.27;;;13.90;99.90;;;;;;7289268;19;20192;-81
2023/10/27 00:08:31;;;;;;;23.73;5.10;;;13.90;99.90;;;;;;7306120;19;20711;-81
2023/10/27 00:10:56;;;;;;;26.93;5.13;;;13.90;99.90;;;;;;7299684;19;20207;-82
2023/10/27 00:13:22;;;;;;;28.23;5.57;;;14.00;99.90;;;;;;7287385;19;20248;-81
2023/10/27 00:15:48;;;;;;;26.80;5.83;;;14.00;99.90;;;;;;7287720;19;20231;-82
2023/10/27 00:18:14;;;;;;;26.33;5.70;;;14.00;99.90;;;;;;7289896;19;20203;-81
2023/10/27 00:20:39;;;;;;;26.27;5.90;;;14.00;99.90;;;;;;7289293;19;20191;-81
2023/10/27 00:23:05;;;;;;;27.70;5.50;;;13.90;99.90;;;;;;7290613;19;20202;-81
2023/10/27 00:25:31;;;;;;;22.70;5.70;;;13.90;99.90;;;;;;7301425;19;20194;-81
2023/10/27 00:27:57;;;;;;;22.43;5.37;;;14.00;99.90;;;;;;7304971;19;20190;-82
2023/10/27 00:30:23;;;;;;;25.63;5.83;;;14.00;99.90;;;;;;7288994;19;20658;-81
2023/10/27 00:32:48;;;;;;;18.37;5.07;;;13.90;99.90;;;;;;7289597;19;20191;-80
2023/10/27 00:35:14;;;;;;;22.73;5.70;;;14.00;99.90;;;;;;7286610;19;20196;-81
2023/10/27 00:37:41;;;;;;;26.43;6.47;;;14.00;99.90;;;;;;7289135;19;20195;-80
2023/10/27 00:40:10;;;;;;;21.87;5.77;;;14.00;99.90;;;;;;7288498;19;20179;-80
2023/10/27 00:42:36;;;;;;;24.93;6.10;;;14.00;99.90;;;;;;7288967;19;20188;-80
2023/10/27 00:45:03;;;;;;;24.93;6.07;;;14.00;99.90;;;;;;7291339;19;20279;-80
2023/10/27 00:47:30;;;;;;;31.20;6.27;;;14.00;99.90;;;;;;7311931;19;20824;-81
2023/10/27 00:49:56;;;;;;;26.70;5.50;;;14.10;99.90;;;;;;7287013;19;20843;-80
2023/10/27 00:52:24;;;;;;;19.13;5.63;;;14.10;99.90;;;;;;7289431;19;20281;-80
2023/10/27 00:54:51;;;;;;;24.73;6.53;;;14.10;99.90;;;;;;7287383;19;20185;-80
2023/10/27 00:57:18;;;;;;;20.50;5.40;;;14.10;99.90;;;;;;7288182;19;20215;-80
2023/10/27 00:59:44;;;;;;;23.87;5.70;;;14.10;99.90;;;;;;7287420;19;20188;-80
2023/10/27 01:02:10;;;;;;;20.37;5.47;;;14.00;99.90;;;;;;7288707;19;20204;-80
2023/10/27 01:04:37;;;;;;;18.53;5.47;;;14.00;99.90;;;;;;7287533;19;20195;-80
2023/10/27 01:07:03;;;;;;;23.73;6.27;;;14.10;99.90;;;;;;7286119;19;20191;-79
2023/10/27 01:09:29;;;;;;;21.17;5.67;;;14.00;99.90;;;;;;7308045;19;20190;-80
2023/10/27 01:11:56;;;;;;;22.10;5.70;;;14.10;99.90;;;;;;7288391;19;20215;-80
2023/10/27 01:14:22;;;;;;;23.17;5.70;;;14.10;99.90;;;;;;7287388;19;20185;-80
2023/10/27 01:16:49;;;;;;;24.27;5.90;;;14.10;99.90;;;;;;7286696;19;20654;-81
2023/10/27 01:19:15;;;;;;;21.87;6.40;;;14.20;99.90;;;;;;7286956;19;20203;-81
2023/10/27 01:21:42;;;;;;;21.97;5.77;;;14.20;99.90;;;;;;7286071;19;20532;-81
2023/10/27 01:24:08;;;;;;;26.43;6.10;;;14.20;99.90;;;;;;7286599;19;20237;-80
2023/10/27 01:26:34;;;;;;;26.97;6.30;;;14.10;99.90;;;;;;7286002;19;20745;-80
2023/10/27 01:29:00;;;;;;;18.77;6.00;;;14.10;99.90;;;;;;7305509;19;20187;-81
2023/10/27 01:31:26;;;;;;;25.20;5.90;;;14.10;99.90;;;;;;7286299;19;20186;-80
2023/10/27 01:33:52;;;;;;;20.77;5.80;;;13.90;99.90;;;;;;7287308;19;20712;-81
2023/10/27 01:36:17;;;;;;;20.80;6.00;;;13.90;99.90;;;;;;7283768;19;20183;-81
2023/10/27 01:38:43;;;;;;;23.90;6.37;;;13.90;99.90;;;;;;7287603;19;20190;-81
2023/10/27 01:41:09;;;;;;;19.57;5.97;;;13.90;99.90;;;;;;7284894;19;20229;-81
2023/10/27 01:43:35;;;;;;;17.77;5.00;;;13.90;99.90;;;;;;7285378;19;20588;-81
2023/10/27 01:46:01;;;;;;;20.00;5.33;;;14.00;99.90;;;;;;7295552;19;20203;-80
2023/10/27 01:48:27;;;;;;;25.57;5.47;;;14.00;99.90;;;;;;7304482;19;20201;-81
2023/10/27 01:50:54;;;;;;;20.37;5.20;;;14.00;99.90;;;;;;7287047;19;20201;-81
2023/10/27 01:53:20;;;;;;;15.83;4.73;;;14.00;99.90;;;;;;7287522;19;20833;-81
2023/10/27 01:55:46;;;;;;;16.37;4.10;;;13.90;99.90;;;;;;7283416;19;20195;-82
2023/10/27 01:58:12;;;;;;;17.27;4.27;;;13.90;99.90;;;;;;7286381;19;20194;-81
2023/10/27 02:00:38;;;;;;;21.37;4.27;;;13.90;99.90;;;;;;7287129;19;20195;-81
2023/10/27 02:03:03;;;;;;;19.43;4.30;;;14.00;99.90;;;;;;7289307;19;20191;-81
2023/10/27 02:05:29;;;;;;;16.57;3.90;;;14.00;99.90;;;;;;7308712;19;20191;-81
2023/10/27 02:07:55;;;;;;;23.00;4.33;;;14.10;99.90;;;;;;7285880;19;21036;-81
2023/10/27 02:10:21;;;;;;;19.20;3.70;;;14.10;99.90;;;;;;7284407;19;20196;-81
2023/10/27 02:12:46;;;;;;;15.67;3.97;;;14.10;99.90;;;;;;7286255;19;20199;-81
2023/10/27 02:15:12;;;;;;;17.57;4.60;;;14.10;99.90;;;;;;7285789;19;20210;-81
2023/10/27 02:17:39;;;;;;;14.30;3.87;;;14.00;99.90;;;;;;7287487;19;20197;-81
2023/10/27 02:20:07;;;;;;;17.77;3.77;;;14.00;99.90;;;;;;7285458;19;20709;-81
2023/10/27 02:22:33;;;;;;;16.43;3.40;;;13.90;99.90;;;;;;7284826;19;20224;-81
2023/10/27 02:24:58;;;;;;;11.37;3.53;;;13.90;99.90;;;;;;7306903;19;20203;-81
2023/10/27 02:27:26;;;;;;;15.83;3.70;;;13.90;99.90;;;;;;7286051;19;20196;-81
2023/10/27 02:29:54;;;;;;;18.43;3.83;;;13.90;99.90;;;;;;7285126;19;20186;-81
2023/10/27 02:32:20;;;;;;;14.70;3.60;;;13.90;99.90;;;;;;7286055;19;20191;-82
2023/10/27 02:34:47;;;;;;;15.30;3.40;;;14.00;99.90;;;;;;7290321;19;20223;-82
2023/10/27 02:37:13;;;;;;;17.23;3.07;;;14.00;99.90;;;;;;7291537;19;20192;-81
2023/10/27 02:39:39;;;;;;;14.17;3.07;;;14.00;99.90;;;;;;7291399;19;20196;-81
2023/10/27 02:42:05;;;;;;;13.80;3.27;;;14.00;99.90;;;;;;7290801;19;20323;-81
2023/10/27 02:44:31;;;;;;;13.17;3.40;;;13.90;99.90;;;;;;7306681;19;20247;-79
2023/10/27 02:46:57;;;;;;;14.00;2.93;;;13.90;99.90;;;;;;7302268;19;20189;-80
2023/10/27 02:49:22;;;;;;;9.57;2.47;;;13.90;99.90;;;;;;7286750;19;20187;-81
2023/10/27 02:51:48;;;;;;;12.63;2.87;;;13.80;99.90;;;;;;7287131;19;20575;-81
2023/10/27 02:54:13;;;;;;;11.53;2.60;;;13.70;99.90;;;;;;7286807;19;20234;-80
2023/10/27 02:56:39;;;;;;;14.33;2.93;;;13.70;99.90;;;;;;7283223;19;20494;-81
2023/10/27 02:59:05;;;;;;;12.47;2.67;;;13.70;99.90;;;;;;7282489;19;20267;-81
2023/10/27 03:01:31;;;;;;;13.10;2.50;;;13.70;99.90;;;;;;7300927;19;20220;-79
2023/10/27 03:03:57;;;;;;;12.73;2.20;;;13.70;99.90;;;;;;7300269;19;20550;-81
2023/10/27 03:06:22;;;;;;;16.67;3.10;;;13.70;99.90;;;;;;7283335;19;20253;-81
2023/10/27 03:08:49;;;;;;;12.33;2.50;;;13.60;99.90;;;;;;7278360;19;20191;-80
2023/10/27 03:11:15;;;;;;;11.80;2.63;;;13.60;99.90;;;;;;7283181;19;20223;-80
2023/10/27 03:13:40;;;;;;;13.30;3.00;;;13.60;99.90;;;;;;7283438;19;20187;-81
2023/10/27 03:16:06;;;;;;;14.13;3.00;;;13.70;99.90;;;;;;7282405;19;20214;-80
2023/10/27 03:18:32;;;;;;;9.97;3.23;;;13.70;99.90;;;;;;7289983;19;20189;-80
2023/10/27 03:21:05;;;;;;;13.93;3.17;;;13.60;99.90;;;;;;7304787;19;20228;-81
2023/10/27 03:23:31;;;;;;;13.60;3.60;;;13.70;99.90;;;;;;7280492;19;20250;-80
2023/10/27 03:25:58;;;;;;;12.60;3.90;;;13.60;99.90;;;;;;7295909;19;20190;-81
2023/10/27 03:28:24;;;;;;;17.77;4.77;;;13.60;99.90;;;;;;7283280;19;20233;-80
2023/10/27 03:30:50;;;;;;;16.93;4.70;;;13.60;99.90;;;;;;7282518;19;20182;-80
2023/10/27 03:33:19;;;;;;;13.97;4.63;;;13.60;99.90;;;;;;7282174;19;20213;-80
2023/10/27 03:35:46;;;;;;;15.10;4.70;;;13.60;99.90;;;;;;7282849;19;20221;-81
2023/10/27 03:38:13;;;;;;;13.13;4.87;;;13.60;99.90;;;;;;7282869;19;20209;-80
2023/10/27 03:40:41;;;;;;;10.07;4.27;;;13.60;99.90;;;;;;7280366;19;20220;-80
2023/10/27 03:43:09;;;;;;;12.30;4.27;;;13.50;99.90;;;;;;7281911;19;20193;-80
2023/10/27 03:45:35;;;;;;;11.17;4.07;;;13.40;99.90;;;;;;7281591;19;20193;-80
2023/10/27 03:48:02;;;;;;;15.73;4.17;;;13.50;99.90;;;;;;7300259;19;20193;-80
2023/10/27 03:50:28;;;;;;;13.50;4.20;;;13.50;99.90;;;;;;7305281;19;20182;-80
2023/10/27 03:52:54;;;;;;;11.53;4.10;;;13.50;99.90;;;;;;7283599;19;20186;-80
2023/10/27 03:55:20;;;;;;;10.03;3.33;;;13.60;99.90;;;;;;7282258;19;20190;-81
2023/10/27 03:57:46;;;;;;;12.27;4.37;;;13.60;99.90;;;;;;7284067;19;20209;-80
2023/10/27 04:00:13;;;;;;;11.57;3.80;;;13.50;99.90;;;;;;7281236;19;20198;-80
2023/10/27 04:02:39;;;;;;;11.07;3.70;;;13.50;99.90;;;;;;7281752;19;20719;-80
2023/10/27 04:05:05;;;;;;;8.47;3.50;;;13.50;99.90;;;;;;7282038;19;20463;-80
2023/10/27 04:07:31;;;;;;;8.70;3.57;;;13.50;99.90;;;;;;7306951;19;20182;-79
2023/10/27 04:09:57;;;;;;;11.40;3.60;;;13.60;99.90;;;;;;7308277;19;20300;-80
2023/10/27 04:12:23;;;;;;;8.90;3.10;;;13.50;99.90;;;;;;7292042;19;20198;-81
2023/10/27 04:14:49;;;;;;;9.60;2.50;;;13.60;99.90;;;;;;7289600;19;20188;-81
2023/10/27 04:17:14;;;;;;;7.40;2.77;;;13.60;99.90;;;;;;7291396;19;20216;-80
2023/10/27 04:19:43;;;;;;;10.37;2.67;;;13.60;99.90;;;;;;7294176;19;20817;-80
2023/10/27 04:22:10;;;;;;;10.33;2.60;;;13.70;99.90;;;;;;7291436;19;20189;-80
2023/10/27 04:24:36;;;;;;;5.57;2.37;;;13.80;99.90;;;;;;7284470;19;20229;-79
2023/10/27 04:27:02;;;;;;;6.90;2.13;;;13.80;99.90;;;;;;7292697;19;20227;-79
2023/10/27 04:29:28;;;;;;;9.70;2.20;;;13.60;99.90;;;;;;7306369;19;20212;-80
2023/10/27 04:31:54;;;;;;;9.83;2.30;;;13.60;99.90;;;;;;7283478;19;20658;-79
2023/10/27 04:34:20;;;;;;;6.53;1.90;;;13.50;99.90;;;;;;7288336;19;20196;-79
2023/10/27 04:36:46;;;;;;;6.43;1.93;;;13.50;99.90;;;;;;7287144;19;20224;-78
2023/10/27 04:39:11;;;;;;;7.20;1.90;;;13.50;99.90;;;;;;7287944;19;20186;-80
2023/10/27 04:41:37;;;;;;;5.07;1.50;;;13.40;99.90;;;;;;7287536;19;20216;-79
2023/10/27 04:44:03;;;;;;;5.33;1.50;;;13.50;99.90;;;;;;7291804;19;20295;-79
2023/10/27 04:46:29;;;;;;;6.87;1.70;;;13.60;99.90;;;;;;7307491;19;20191;-79
2023/10/27 04:48:57;;;;;;;6.57;2.40;;;13.70;99.90;;;;;;7287084;19;20743;-79
2023/10/27 04:51:24;;;;;;;7.83;2.30;;;13.60;99.90;;;;;;7287260;19;20552;-80
2023/10/27 04:53:50;;;;;;;8.40;2.37;;;13.50;99.90;;;;;;7287395;19;20193;-79
2023/10/27 04:56:18;;;;;;;7.03;2.10;;;13.40;99.90;;;;;;7286568;19;20659;-79
2023/10/27 04:58:44;;;;;;;6.80;2.30;;;13.50;99.90;;;;;;7286545;19;20294;-79
2023/10/27 05:01:11;;;;;;;6.23;2.30;;;13.50;99.90;;;;;;7286870;19;20206;-79
2023/10/27 05:03:37;;;;;;;7.13;2.67;;;13.50;99.90;;;;;;7285601;19;20199;-79
2023/10/27 05:06:11;;;;;;;8.10;2.60;;;13.60;99.90;;;;;;7295443;19;20202;-79
2023/10/27 05:08:37;;;;;;;11.47;2.93;;;13.50;99.90;;;;;;7286520;19;20190;-80
2023/10/27 05:11:06;;;;;;;7.97;3.40;;;13.50;99.90;;;;;;7286888;19;20259;-78
2023/10/27 05:13:32;;;;;;;9.33;3.40;;;13.40;99.90;;;;;;7299744;19;20313;-79
2023/10/27 05:15:58;;;;;;;8.87;4.10;;;13.40;99.90;;;;;;7305573;19;20193;-79
2023/10/27 05:18:24;;;;;;;9.07;4.13;;;13.50;99.90;;;;;;7285250;19;20230;-80
2023/10/27 05:20:50;;;;;;;12.30;4.50;;;13.50;99.90;;;;;;7284257;19;20693;-80
2023/10/27 05:23:15;;;;;;;10.33;5.10;;;13.40;99.90;;;;;;7286920;19;20205;-80
2023/10/27 05:25:41;;;;;;;12.67;5.83;;;13.50;99.90;;;;;;7287323;19;20198;-80
2023/10/27 05:28:10;;;;;;;14.23;6.20;;;13.40;99.90;;;;;;7283988;19;20553;-80
2023/10/27 05:30:36;;;;;;;13.47;6.33;;;13.40;99.90;;;;;;7281744;19;20244;-80
2023/10/27 05:33:02;;;;;;;15.40;7.33;;;13.40;99.90;;;;;;7298359;19;20201;-81
2023/10/27 05:35:28;;;;;;;18.73;7.87;;;13.30;99.90;;;;;;7306230;19;20682;-80
2023/10/27 05:37:54;;;;;;;15.40;7.67;;;13.30;99.90;;;;;;7285209;19;20226;-80
2023/10/27 05:40:20;;;;;;;14.93;8.03;;;13.20;99.90;;;;;;7287001;19;20763;-81
2023/10/27 05:42:46;;;;;;;15.20;8.00;;;13.20;99.90;;;;;;7285979;19;20198;-80
2023/10/27 05:45:12;;;;;;;15.77;8.33;;;13.20;99.90;;;;;;7283111;19;20204;-80
2023/10/27 05:47:38;;;;;;;18.83;8.23;;;13.30;99.90;;;;;;7285018;19;20188;-80
2023/10/27 05:50:08;;;;;;;19.10;8.37;;;13.30;99.90;;;;;;7286746;19;20189;-81
2023/10/27 05:52:34;;;;;;;19.17;8.40;;;13.30;99.90;;;;;;7285395;19;20190;-81
2023/10/27 05:55:00;;;;;;;14.67;7.80;;;13.50;99.90;;;;;;7307869;19;20245;-81
2023/10/27 05:57:26;;;;;;;17.87;7.80;;;13.40;99.90;;;;;;7284829;19;20181;-81
2023/10/27 05:59:51;;;;;;;17.40;7.90;;;13.40;99.90;;;;;;7286060;19;20207;-81
2023/10/27 06:02:17;;;;;;;17.43;7.80;;;13.40;99.90;;;;;;7286238;19;20546;-81
2023/10/27 06:04:43;;;;;;;18.70;8.07;;;13.40;99.90;;;;;;7287001;19;20499;-81
2023/10/27 06:07:08;;;;;;;19.13;7.67;;;13.50;99.90;;;;;;7286779;19;20204;-81
2023/10/27 06:09:35;;;;;;;15.47;7.70;;;13.50;99.90;;;;;;7283894;19;20668;-81
2023/10/27 06:12:02;;;;;;;18.47;8.73;;;13.50;99.90;;;;;;7307648;19;20280;-81
2023/10/27 06:14:28;;;;;;;18.53;8.13;;;13.40;99.90;;;;;;7285750;19;20210;-81
2023/10/27 06:16:54;;;;;;;17.73;8.53;;;13.30;99.90;;;;;;7284763;19;20208;-81
2023/10/27 06:19:20;;;;;;;17.40;8.47;;;13.30;99.90;;;;;;7286611;19;20221;-81
2023/10/27 06:21:47;;;;;;;16.17;8.00;;;13.20;99.90;;;;;;7284821;19;20191;-81
2023/10/27 06:24:13;;;;;;;22.13;8.53;;;13.00;99.90;;;;;;7285852;19;20194;-81
2023/10/27 06:26:39;;;;;;;16.93;7.70;;;12.90;99.90;;;;;;7280305;19;20192;-81
2023/10/27 06:29:05;;;;;;;18.40;8.00;;;13.00;99.90;;;;;;7283914;19;20195;-81
2023/10/27 06:31:31;;;;;;;19.30;8.20;;;13.00;99.90;;;;;;7308207;19;20177;-81
2023/10/27 06:33:57;;;;;;;19.53;8.33;;;13.00;99.90;;;;;;7281786;19;20962;-81
2023/10/27 06:36:22;;;;;;;19.27;7.70;;;12.90;99.90;;;;;;7282851;19;20181;-81
2023/10/27 06:38:48;;;;;;;17.47;8.20;;;12.90;99.90;;;;;;7285420;19;20188;-81
2023/10/27 06:41:14;;;;;;;24.33;8.60;;;12.90;99.90;;;;;;7284735;19;20193;-81
2023/10/27 06:43:39;;;;;;;16.83;8.20;;;12.90;99.90;;;;;;7285299;19;20212;-81
2023/10/27 06:46:05;;;;;;;20.83;8.00;;;12.90;99.90;;;;;;7282190;19;20215;-81
2023/10/27 06:48:31;;;;;;;20.33;8.20;;;13.00;99.90;;;;;;7305333;19;20957;-81
2023/10/27 06:50:57;;;;;;;17.93;7.67;;;12.90;99.90;;;;;;7285355;19;20196;-81
2023/10/27 06:53:22;;;;;;;16.80;7.90;;;12.90;99.90;;;;;;7284815;19;20199;-81
2023/10/27 06:55:48;;;;;;;17.37;7.17;;;12.90;99.90;;;;;;7281417;19;20667;-81
2023/10/27 06:58:14;;;;;;;20.93;8.20;;;12.90;99.90;;;;;;7285431;19;20190;-81
2023/10/27 07:00:39;;;;;;;19.93;7.73;;;13.10;99.90;;;;;;7281299;19;20562;-81
2023/10/27 07:03:06;;;;;;;15.07;6.87;;;13.20;99.90;;;;;;7280656;19;20297;-81
2023/10/27 07:05:31;;;;;;;18.90;5.97;;;13.30;99.90;;;;;;7301990;19;20208;-81
2023/10/27 07:07:57;;;;;;;13.90;6.23;;;13.40;99.90;;;;;;7293799;19;20615;-81
2023/10/27 07:10:23;;;;;;;22.17;6.43;;;13.40;99.90;;;;;;7283434;19;20841;-81
2023/10/27 07:12:49;;;;;;;21.83;7.60;;;13.40;99.90;;;;;;7284603;19;20292;-81
2023/10/27 07:15:14;;;;;;;18.67;5.70;;;13.60;99.90;;;;;;7283660;19;20208;-81
2023/10/27 07:17:41;;;;;;;16.13;5.63;;;13.60;99.90;;;;;;7283997;19;20195;-81
2023/10/27 07:20:07;;;;;;;13.93;5.40;;;13.70;99.90;;;;;;7280518;19;20199;-81
2023/10/27 07:22:36;;;;;;;14.20;5.50;;;13.70;99.90;;;;;;7289418;19;20230;-81
2023/10/27 07:25:03;;;;;;;17.40;5.80;;;13.70;99.90;;;;;;7301445;19;20278;-80
2023/10/27 07:27:29;;;;;;;17.13;6.00;;;13.60;99.90;;;;;;7304718;19;20198;-81
2023/10/27 07:29:55;;;;;;;19.73;6.00;;;13.60;99.90;;;;;;7284034;19;20686;-81
2023/10/27 07:32:21;;;;;;;16.50;5.63;;;13.60;99.90;;;;;;7283191;19;20199;-82
2023/10/27 07:34:48;;;;;;;15.87;5.70;;;13.70;99.90;;;;;;7283089;19;20201;-82
2023/10/27 07:37:14;;;;;;;20.17;6.53;;;13.80;99.90;;;;;;7284183;19;20202;-81
2023/10/27 07:39:39;;;;;;;18.47;6.17;;;14.00;99.90;;;;;;7279688;19;20252;-82
2023/10/27 07:42:07;;;;;;;20.37;6.47;;;14.10;99.90;;;;;;7283651;19;20672;-82
2023/10/27 07:44:33;;;;;;;18.30;5.90;;;14.10;99.90;;;;;;7293520;19;20689;-81
2023/10/27 07:46:59;;;;;;;20.70;6.60;;;14.10;99.90;;;;;;7312176;19;20199;-82
2023/10/27 07:49:25;;;;;;;20.80;6.97;;;14.10;99.90;;;;;;7289980;19;20219;-82
2023/10/27 07:51:50;;;;;;;21.97;7.47;;;14.10;99.90;;;;;;7289423;19;20558;-82
2023/10/27 07:54:16;;;;;;;18.97;7.27;;;14.20;99.90;;;;;;7289340;19;20571;-82
2023/10/27 07:56:42;;;;;;;22.83;8.63;;;14.30;99.90;;;;;;7288953;19;20211;-81
2023/10/27 07:59:08;;;;;;;19.13;7.80;;;14.30;99.90;;;;;;7288883;19;20194;-82
2023/10/27 08:01:34;;;;;;;24.80;8.77;;;14.30;99.90;;;;;;7286398;19;20227;-81
2023/10/27 08:04:02;;;;;;;20.13;9.10;;;14.30;99.90;;;;;;7311940;19;20699;-82
2023/10/27 08:06:29;;;;;;;24.60;9.70;;;14.50;99.90;;;;;;7289604;19;20187;-82
2023/10/27 08:08:54;;;;;;;27.00;10.83;;;14.50;99.90;;;;;;7290405;19;20206;-81
2023/10/27 08:11:21;;;;;;;24.70;10.37;;;14.60;99.90;;;;;;7289927;19;20207;-82
2023/10/27 08:13:47;;;;;;;21.70;9.93;;;14.60;99.90;;;;;;7289047;19;20195;-82
2023/10/27 08:16:16;;;;;;;27.07;10.53;;;14.60;99.90;;;;;;7288174;19;20215;-82
2023/10/27 08:18:41;;;;;;;23.97;9.50;;;14.60;99.90;;;;;;7288350;19;20187;-82
2023/10/27 08:21:08;;;;;;;29.37;10.30;;;14.70;99.90;;;;;;7287847;19;20208;-82
2023/10/27 08:23:33;;;;;;;29.13;9.63;;;14.80;99.90;;;;;;7290713;19;20187;-81
2023/10/27 08:25:59;;;;;;;26.33;9.63;;;14.90;99.90;;;;;;7310616;19;20221;-81
2023/10/27 08:28:27;;;;;;;24.57;9.23;;;14.90;99.90;;;;;;7287943;19;20187;-82
2023/10/27 08:30:53;;;;;;;26.07;8.87;;;14.90;99.90;;;;;;7283842;19;20188;-82
2023/10/27 08:33:19;;;;;;;19.30;8.17;;;14.80;99.90;;;;;;7289298;19;20187;-82
2023/10/27 08:35:45;;;;;;;20.93;8.47;;;14.80;99.90;;;;;;7283456;19;20211;-82
2023/10/27 08:38:10;;;;;;;25.70;8.90;;;14.80;99.90;;;;;;7288454;19;20259;-81
2023/10/27 08:40:36;;;;;;;26.07;8.20;;;14.80;99.90;;;;;;7287467;19;20193;-82
2023/10/27 08:43:03;;;;;;;24.13;8.00;;;14.90;99.90;;;;;;7303313;19;20188;-81
2023/10/27 08:45:29;;;;;;;20.37;7.77;;;14.70;99.90;;;;;;7310302;19;20203;-81
2023/10/27 08:47:55;;;;;;;18.87;7.77;;;14.70;99.90;;;;;;7287820;19;20219;-81
2023/10/27 08:50:22;;;;;;;23.47;8.00;;;14.70;99.90;;;;;;7285905;19;20205;-81
2023/10/27 08:52:48;;;;;;;18.17;7.00;;;14.70;99.90;;;;;;7286734;19;20200;-81
2023/10/27 08:55:14;;;;;;;25.90;7.27;;;14.70;99.90;;;;;;7286266;19;20206;-81
2023/10/27 08:57:40;;;;;;;18.63;7.30;;;14.70;99.90;;;;;;7283050;19;20191;-81
2023/10/27 09:00:07;;;;;;;19.73;6.87;;;14.70;99.90;;;;;;7286330;19;20287;-81
2023/10/27 09:02:33;;;;;;;21.87;6.43;;;14.70;99.90;;;;;;7297517;19;20513;-82
2023/10/27 09:05:02;;;;;;;19.13;6.77;;;14.70;99.90;;;;;;7308947;19;20192;-81
2023/10/27 09:07:29;;;;;;;22.77;6.03;;;14.70;99.90;;;;;;7288474;19;20212;-82
2023/10/27 09:09:54;;;;;;;15.87;5.60;;;14.70;99.90;;;;;;7287634;19;20198;-82
2023/10/27 09:12:26;;;;;;;22.50;5.93;;;14.60;99.90;;;;;;7287008;19;20201;-82
2023/10/27 09:15:08;;;;;;;23.40;6.03;;;14.50;99.90;;;;;;7285504;19;20196;-82
2023/10/27 09:17:56;;;;;;;19.87;5.17;;;14.40;99.90;;;;;;7266686;19;20211;-82
2023/10/27 09:20:23;;;;;;;18.13;5.57;;;14.30;99.90;;;;;;7288226;19;21587;-82
2023/10/27 09:22:56;;;;;;;18.30;5.57;;;14.10;99.90;;;;;;7287668;19;20195;-82
2023/10/27 09:25:28;;;;;;;19.23;5.13;;;14.00;99.90;;;;;;7288064;19;20320;-82
2023/10/27 09:27:54;;;;;;;17.77;4.90;;;13.90;99.90;;;;;;7286739;19;20293;-82
2023/10/27 09:30:30;;;;;;;13.83;5.10;;;13.80;99.90;;;;;;7287693;19;20533;-82
2023/10/27 09:33:13;;;;;;;17.80;5.13;;;13.90;99.90;;;;;;7287326;19;20202;-82
2023/10/27 09:35:40;;;;;;;17.53;4.20;;;13.70;99.90;;;;;;7179950;19;2005042;-82
2023/10/27 09:38:08;;;;;;;17.23;5.17;;;13.80;99.90;;;;;;7286472;19;20192;-82
2023/10/27 09:40:36;;;;;;;18.23;4.70;;;13.80;99.90;;;;;;7287087;19;20266;-81
2023/10/27 09:43:02;;;;;;;17.00;4.47;;;14.00;99.90;;;;;;7308929;19;20194;-82
2023/10/27 09:45:32;;;;;;;16.07;4.30;;;14.30;99.90;;;;;;7286525;19;20188;-82
2023/10/27 09:48:02;;;;;;;16.37;4.40;;;14.40;99.90;;;;;;7282155;19;20238;-82
2023/10/27 09:50:30;;;;;;;17.07;3.57;;;14.50;99.90;;;;;;7288744;19;20549;-82
2023/10/27 09:53:00;;;;;;;17.43;3.57;;;14.60;99.90;;;;;;7285063;19;20184;-82
2023/10/27 09:55:33;;;;;;;13.20;3.53;;;14.70;99.90;;;;;;7285906;19;20808;-81
2023/10/27 09:58:01;;;;;;;16.23;3.57;;;14.80;99.90;;;;;;7287687;19;20194;-82
2023/10/27 10:00:29;;;;;;;11.13;3.40;;;14.90;99.90;;;;;;7284161;19;20204;-82
2023/10/27 10:02:56;;;;;;;19.27;4.40;;;15.10;99.90;;;;;;7286045;19;20190;-82
2023/10/27 10:05:23;;;;;;;13.27;3.50;;;15.10;99.90;;;;;;7285513;19;20292;-82
2023/10/27 10:07:52;;;;;;;14.97;3.50;;;15.10;99.90;;;;;;7284829;19;20196;-82
2023/10/27 10:10:29;;;;;;;11.93;3.43;;;15.10;99.90;;;;;;7285193;19;20678;-82
2023/10/27 10:13:04;;;;;;;15.83;4.00;;;15.20;99.90;;;;;;7286149;19;20188;-82
2023/10/27 10:15:37;;;;;;;16.03;3.37;;;15.20;99.90;;;;;;7290725;19;20719;-81
2023/10/27 10:18:06;;;;;;;17.43;3.70;;;15.30;99.90;;;;;;7273222;19;20215;-81
2023/10/27 10:20:47;;;;;;;18.20;3.80;;;15.20;99.90;;;;;;7308319;19;20279;-81
2023/10/27 10:23:14;;;;;;;15.17;3.57;;;15.00;99.90;;;;;;7184116;19;2004503;-81
2023/10/27 10:25:50;;;;;;;18.50;4.30;;;14.90;99.90;;;;;;7286383;19;20255;-82
2023/10/27 10:28:16;;;;;;;18.33;4.03;;;15.10;99.90;;;;;;7281887;19;20196;-82
2023/10/27 10:30:44;;;;;;;13.83;3.17;;;15.10;99.90;;;;;;7285065;19;20212;-82
2023/10/27 10:33:29;;;;;;;19.57;3.37;;;15.20;99.90;;;;;;7286605;19;20787;-81
2023/10/27 10:36:19;;;;;;;12.93;3.20;;;15.30;99.90;;;;;;7284596;19;20216;-81
2023/10/27 10:38:57;;;;;;;15.23;3.30;;;15.30;99.90;;;;;;7184329;19;2004618;-81
2023/10/27 10:41:41;;;;;;;13.27;2.77;;;15.30;99.90;;;;;;7285704;19;20611;-80
2023/10/27 10:44:12;;;;;;;13.80;2.83;;;15.30;99.90;;;;;;7259461;19;20194;-81
2023/10/27 10:46:37;;;;;;;10.07;2.87;;;15.20;99.90;;;;;;7284591;19;20200;-82
2023/10/27 10:49:03;;;;;;;14.67;3.13;;;15.30;99.90;;;;;;7300628;19;20189;-81
2023/10/27 10:51:30;;;;;;;12.43;2.30;;;15.40;99.90;;;;;;7307690;19;20546;-81
2023/10/27 10:53:56;;;;;;;14.27;2.33;;;15.40;99.90;;;;;;7284429;19;20179;-81
2023/10/27 10:56:23;;;;;;;14.90;3.47;;;15.40;99.90;;;;;;7284469;19;20235;-82
2023/10/27 10:58:50;;;;;;;14.77;2.90;;;15.30;99.90;;;;;;7285001;19;20195;-82
2023/10/27 11:01:17;;;;;;;14.83;2.97;;;15.20;99.90;;;;;;7283487;19;20200;-81
2023/10/27 11:03:48;;;;;;;12.90;3.10;;;15.20;99.90;;;;;;7280648;19;20184;-81
2023/10/27 11:06:14;;;;;;;15.57;3.07;;;15.20;99.90;;;;;;7283690;19;20728;-82
2023/10/27 11:08:40;;;;;;;12.00;2.77;;;15.40;99.90;;;;;;7283539;19;20373;-81
2023/10/27 11:11:06;;;;;;;14.07;2.73;;;15.40;99.90;;;;;;7283301;19;20256;-81
2023/10/27 11:13:38;;;;;;;15.70;3.07;;;15.40;99.90;;;;;;7304946;19;21079;-82
2023/10/27 11:16:16;;;;;;;16.07;2.47;;;15.50;99.90;;;;;;7262807;19;20207;-82
2023/10/27 11:18:46;;;;;;;19.77;3.63;;;15.50;99.90;;;;;;7282118;19;20641;-81
2023/10/27 11:21:27;;;;;;;15.17;2.33;;;15.40;99.90;;;;;;7283616;19;20191;-81
2023/10/27 11:23:54;;;;;;;13.10;2.60;;;15.50;99.90;;;;;;7283713;19;20204;-81
2023/10/27 11:26:22;;;;;;;13.97;2.60;;;15.70;99.90;;;;;;7283547;19;20261;-82
2023/10/27 11:28:48;;;;;;;14.23;3.07;;;15.90;99.90;;;;;;7282461;19;20196;-82
2023/10/27 11:31:26;;;;;;;11.10;2.87;;;15.80;99.90;;;;;;7283921;19;20186;-82
2023/10/27 11:34:08;;;;;;;12.77;2.80;;;15.80;99.90;;;;;;7282964;19;20220;-81
2023/10/27 11:36:42;;;;;;;10.67;2.70;;;15.90;99.90;;;;;;7270216;19;20191;-81
2023/10/27 11:39:17;;;;;;;17.23;2.77;;;16.00;99.90;;;;;;7283938;19;20204;-81
2023/10/27 11:41:55;;;;;;;12.23;2.87;;;16.30;99.90;;;;;;7282061;19;20217;-82
2023/10/27 11:44:22;;;;;;;9.73;2.07;;;16.40;99.90;;;;;;7284399;19;20268;-82
2023/10/27 11:46:50;;;;;;;16.73;2.80;;;16.40;99.90;;;;;;7282500;19;20198;-81
2023/10/27 11:49:16;;;;;;;12.87;2.10;;;16.60;99.90;;;;;;7282382;19;20187;-81
2023/10/27 11:51:46;;;;;;;11.77;2.23;;;16.60;99.90;;;;;;7282589;19;20192;-81
2023/10/27 11:54:12;;;;;;;21.47;3.40;;;16.40;99.90;;;;;;7281704;19;20189;-81
2023/10/27 11:56:38;;;;;;;16.80;2.50;;;16.60;99.90;;;;;;7282765;19;20309;-81
2023/10/27 11:59:04;;;;;;;9.60;1.80;;;16.90;99.90;;;;;;7287274;19;20241;-81
2023/10/27 12:01:31;;;;;;;7.90;1.80;;;17.00;99.90;;;;;;7306355;19;20193;-82
2023/10/27 12:03:56;;;;;;;8.93;1.53;;;17.10;99.90;;;;;;7284373;19;20539;-81
2023/10/27 12:06:22;;;;;;;8.40;1.67;;;17.00;99.90;;;;;;7281438;19;20213;-81
2023/10/27 12:08:48;;;;;;;9.90;1.77;;;16.90;99.90;;;;;;7278492;19;20198;-81
2023/10/27 12:11:17;;;;;;;7.50;1.40;;;16.90;99.90;;;;;;7280463;19;20205;-81
2023/10/27 12:13:44;;;;;;;6.50;1.53;;;16.70;99.90;;;;;;7283006;19;20185;-81
2023/10/27 12:16:10;;;;;;;10.03;1.70;;;16.50;99.90;;;;;;7281412;19;20797;-81
2023/10/27 12:18:36;;;;;;;10.13;1.70;;;16.30;99.90;;;;;;7280433;19;20236;-81
2023/10/27 12:21:02;;;;;;;5.87;1.20;;;15.90;99.90;;;;;;7302068;19;20208;-81
2023/10/27 12:23:32;;;;;;;8.37;1.90;;;15.90;99.90;;;;;;7281831;19;20193;-80
2023/10/27 12:25:59;;;;;;;9.13;2.30;;;16.00;99.90;;;;;;7282214;19;20677;-81
2023/10/27 12:28:27;;;;;;;8.13;2.30;;;16.00;99.90;;;;;;7279982;19;20197;-81
2023/10/27 12:30:56;;;;;;;8.10;1.97;;;16.00;99.90;;;;;;7279504;19;20210;-81
2023/10/27 12:33:22;;;;;;;6.63;1.43;;;16.10;99.90;;;;;;7289449;19;20201;-81
2023/10/27 12:35:49;;;;;;;8.63;2.10;;;16.30;99.90;;;;;;7288503;19;20661;-80
2023/10/27 12:38:16;;;;;;;6.80;1.80;;;16.40;99.90;;;;;;7288396;19;20195;-81